LEBL/BCN METAR and TAF weather

Enter ICAO airport designator
Station Type Date Time Source
LEBL METAR 2020/07/05 04:00 UTC NOAA

LEBL 050400Z 31008KT CAVOK 20/15 Q1020 NOSIG


Station Type Date Time Source
LEBL Decoded METAR 2020/07/05 04:00 UTC NOAA

Barcelona / Aeropuerto, Spain (LEBL) 41-17N 002-04E 6M
Jul 05, 2020 - 12:00 AM EDT / 2020.07.05 0400 UTC
Wind: from the NW (310 degrees) at 9 MPH (8 KT):0
Visibility: greater than 7 mile(s):0
Temperature: 68 F (20 C)
Dew Point: 59 F (15 C)
Relative Humidity: 72%
Pressure (altimeter): 30.12 in. Hg (1020 hPa)
ob: LEBL 050400Z 31008KT CAVOK 20/15 Q1020 NOSIG
cycle: 4

Station Type Date Time Source
LEBL TAF 2020/07/04 18:27 UTC NOAA

TAF LEBL 041700Z 0418/0518 18007KT 9999 FEW030 TX29/0512Z TN20/0506Z
BECMG 0418/0420 VRB04KT
BECMG 0507/0509 21012KT

Example: see airport list